Time;durP1;ratioP1;P1;durP2;ratioP2;P2;SDS_P1;SDS_P2;PMS_P1;PMS_P2;Temp;Humidity;BMP_temperature;BMP_pressure;BME280_temperature;BME280_humidity;BME280_pressure;Samples;Min_cycle;Max_cycle;Signal;HPM_P1;HPM_P2
2023/06/24 00:01:56;;;;;;;9.02;4.50;;;;;;;14.94;100.00;99631.31;5016684;28;20129;-74
2023/06/24 00:04:23;;;;;;;7.45;4.40;;;;;;;14.98;100.00;99652.47;5035095;28;20121;-74
2023/06/24 00:06:48;;;;;;;11.00;4.47;;;;;;;14.95;100.00;99652.06;5020038;28;20037;-74
2023/06/24 00:09:14;;;;;;;6.75;4.30;;;;;;;14.89;100.00;99662.75;5034574;28;20143;-74
2023/06/24 00:11:39;;;;;;;7.85;4.55;;;;;;;14.72;100.00;99638.84;5020096;28;20068;-75
2023/06/24 00:14:06;;;;;;;6.93;4.43;;;;;;;14.75;100.00;99662.94;5034538;28;20049;-75
2023/06/24 00:16:32;;;;;;;9.45;4.10;;;;;;;14.60;100.00;99661.28;5034913;28;20387;-75
2023/06/24 00:18:58;;;;;;;8.07;4.57;;;;;;;14.54;100.00;99655.81;5033157;28;20025;-75
2023/06/24 00:21:29;;;;;;;8.65;4.30;;;;;;;14.51;100.00;99659.75;5034191;28;20017;-74
2023/06/24 00:23:55;;;;;;;6.60;4.32;;;;;;;14.40;100.00;99650.31;5019143;28;20033;-75
2023/06/24 00:26:21;;;;;;;6.78;4.28;;;;;;;14.50;100.00;99666.25;5020973;28;20024;-75
2023/06/24 00:28:46;;;;;;;8.98;4.38;;;;;;;14.42;100.00;99661.84;5021539;28;20030;-76
2023/06/24 00:31:11;;;;;;;10.18;4.03;;;;;;;14.36;100.00;99642.81;5033642;28;20537;-75
2023/06/24 00:33:37;;;;;;;7.05;4.05;;;;;;;14.36;100.00;99649.09;5022632;28;20013;-75
2023/06/24 00:36:02;;;;;;;9.55;4.63;;;;;;;14.16;100.00;99632.69;5008819;28;20029;-75
2023/06/24 00:38:32;;;;;;;6.95;3.83;;;;;;;14.31;100.00;99658.91;5047008;28;20044;-75
2023/06/24 00:40:57;;;;;;;;;;;;;;;14.34;100.00;99677.56;5025470;28;20510;-74
2023/06/24 00:43:23;;;;;;;5.95;3.90;;;;;;;14.25;100.00;99668.72;5020240;28;19940;-74
2023/06/24 00:45:48;;;;;;;6.07;3.80;;;;;;;14.14;100.00;99656.56;5036639;28;20036;-74
2023/06/24 00:48:14;;;;;;;6.00;3.95;;;;;;;14.01;100.00;99626.59;5036894;28;20124;-74
2023/06/24 00:50:45;;;;;;;8.48;4.40;;;;;;;14.19;100.00;99653.22;5041421;28;20557;-75
2023/06/24 00:53:11;;;;;;;6.05;3.90;;;;;;;14.14;100.00;99634.78;5034604;28;20033;-75
2023/06/24 00:55:37;;;;;;;7.07;4.63;;;;;;;14.27;100.00;99671.25;5032767;28;20064;-75
2023/06/24 00:58:02;;;;;;;6.88;3.90;;;;;;;14.14;100.00;99645.66;5033567;28;20056;-76
2023/06/24 01:00:28;;;;;;;9.10;4.75;;;;;;;14.24;100.00;99661.59;5033098;28;20030;-76
2023/06/24 01:02:53;;;;;;;7.15;4.53;;;;;;;14.08;100.00;99643.78;5023064;28;20029;-76
2023/06/24 01:05:23;;;;;;;7.03;4.35;;;;;;;14.21;100.00;99648.41;5040374;28;20036;-76
2023/06/24 01:07:54;;;;;;;7.22;4.18;;;;;;;13.99;100.00;99636.84;5032009;28;20120;-76
2023/06/24 01:10:20;;;;;;;7.07;4.85;;;;;;;13.86;100.00;99639.53;5028696;28;20467;-76
2023/06/24 01:12:45;;;;;;;8.10;4.50;;;;;;;13.89;100.00;99661.72;5022635;28;20044;-76
2023/06/24 01:15:11;;;;;;;7.65;4.53;;;;;;;13.82;100.00;99647.25;5030339;28;20108;-76
2023/06/24 01:17:54;;;;;;;6.00;3.95;;;;;;;13.84;100.00;99661.50;5040367;28;20137;-76
2023/06/24 01:20:47;;;;;;;7.88;5.07;;;;;;;13.80;100.00;99658.31;5036967;28;20026;-74
2023/06/24 01:23:40;;;;;;;6.10;4.55;;;;;;;13.73;100.00;99657.50;5034982;28;20048;-74
2023/06/24 01:26:43;;;;;;;7.60;4.75;;;;;;;13.72;100.00;99663.94;5035244;28;20056;-75
2023/06/24 01:29:21;;;;;;;8.45;4.97;;;;;;;13.88;100.00;99670.09;5034238;28;20025;-75
2023/06/24 01:31:59;;;;;;;7.75;4.53;;;;;;;13.71;100.00;99653.28;5038285;28;20051;-75
2023/06/24 01:34:36;;;;;;;7.93;4.30;;;;;;;13.69;100.00;99664.34;5039060;28;20387;-75
2023/06/24 01:37:17;;;;;;;8.48;5.03;;;;;;;13.64;100.00;99655.13;5044209;28;20036;-75
2023/06/24 01:40:09;;;;;;;8.70;5.32;;;;;;;13.47;100.00;99649.22;5027159;28;20039;-75
2023/06/24 01:42:38;;;;;;;11.25;4.53;;;;;;;13.46;100.00;99664.66;5026828;28;20039;-75
2023/06/24 01:45:06;;;;;;;10.30;4.93;;;;;;;13.43;100.00;99666.94;5033723;28;20029;-75
2023/06/24 01:47:33;;;;;;;8.77;4.18;;;;;;;13.21;100.00;99658.84;5032622;28;20076;-75
2023/06/24 01:50:01;;;;;;;11.32;4.53;;;;;;;13.28;100.00;99672.50;5035681;28;20140;-75
2023/06/24 01:52:29;;;;;;;6.63;4.45;;;;;;;13.17;100.00;99649.41;5022616;28;20487;-75
2023/06/24 01:54:55;;;;;;;8.07;4.97;;;;;;;13.37;100.00;99676.75;5028678;28;20033;-75
2023/06/24 01:57:23;;;;;;;9.05;4.65;;;;;;;13.34;100.00;99656.25;5031545;28;20033;-75
2023/06/24 01:59:51;;;;;;;8.65;4.70;;;;;;;13.27;100.00;99639.06;5030295;28;20120;-75
2023/06/24 02:02:20;;;;;;;8.02;4.20;;;;;;;13.23;100.00;99642.34;5029600;28;20025;-75
2023/06/24 02:04:45;;;;;;;7.68;4.15;;;;;;;13.18;100.00;99645.66;5029984;28;20382;-75
2023/06/24 02:07:12;;;;;;;7.45;4.40;;;;;;;13.17;100.00;99643.97;5037178;28;20021;-75
2023/06/24 02:09:39;;;;;;;6.55;4.35;;;;;;;13.22;100.00;99662.41;5037664;28;20021;-75
2023/06/24 02:12:06;;;;;;;7.00;4.05;;;;;;;13.10;100.00;99659.41;5029390;28;20395;-75
2023/06/24 02:14:33;;;;;;;7.45;4.28;;;;;;;12.98;100.00;99637.38;5046416;28;20381;-75
2023/06/24 02:17:00;;;;;;;8.00;4.40;;;;;;;13.05;100.00;99648.31;5019595;28;20031;-76
2023/06/24 02:19:30;;;;;;;10.45;4.72;;;;;;;13.18;100.00;99661.09;5037273;28;20479;-76
2023/06/24 02:21:59;;;;;;;10.30;4.85;;;;;;;13.01;100.00;99639.69;5011708;28;20033;-76
2023/06/24 02:24:27;;;;;;;8.85;4.72;;;;;;;12.89;100.00;99650.28;5032419;28;20029;-76
2023/06/24 02:26:54;;;;;;;10.52;4.55;;;;;;;12.84;100.00;99639.16;5032127;28;20487;-76
2023/06/24 02:29:21;;;;;;;7.57;4.90;;;;;;;12.83;100.00;99642.91;5018704;28;20029;-76
2023/06/24 02:31:46;;;;;;;7.35;4.78;;;;;;;12.82;100.00;99635.81;5032695;28;20064;-75
2023/06/24 02:34:12;;;;;;;12.10;5.03;;;;;;;12.84;100.00;99641.88;5032453;28;20048;-76
2023/06/24 02:36:37;;;;;;;8.15;5.03;;;;;;;12.86;100.00;99642.53;5039978;28;20041;-75
2023/06/24 02:39:04;;;;;;;10.15;5.25;;;;;;;12.82;100.00;99635.81;5014314;28;20033;-75
2023/06/24 02:41:29;;;;;;;7.50;5.03;;;;;;;12.86;100.00;99626.25;5009366;28;20025;-76
2023/06/24 02:43:54;;;;;;;8.00;5.05;;;;;;;12.77;100.00;99632.84;5024615;28;20043;-76
2023/06/24 02:46:21;;;;;;;8.30;4.72;;;;;;;12.77;100.00;99646.41;5039948;28;20475;-73
2023/06/24 02:48:49;;;;;;;7.35;4.75;;;;;;;12.65;100.00;99640.69;5021459;28;20115;-74
2023/06/24 02:51:15;;;;;;;8.40;4.60;;;;;;;12.67;100.00;99649.47;5032990;28;20040;-76
2023/06/24 02:53:41;;;;;;;11.77;5.22;;;;;;;12.51;100.00;99625.31;5048505;28;20017;-75
2023/06/24 02:56:08;;;;;;;14.23;5.47;;;;;;;12.58;100.00;99637.09;5031833;28;20025;-75
2023/06/24 02:58:38;;;;;;;10.75;5.25;;;;;;;12.59;100.00;99640.63;5030099;28;20040;-76
2023/06/24 03:01:03;;;;;;;9.68;5.07;;;;;;;12.43;100.00;99641.75;5033670;28;20483;-75
2023/06/24 03:03:30;;;;;;;11.15;5.30;;;;;;;12.41;100.00;99651.94;5032604;28;20082;-76
2023/06/24 03:05:58;;;;;;;8.23;4.80;;;;;;;12.43;100.00;99664.28;5024840;28;20040;-75
2023/06/24 03:08:24;;;;;;;8.68;5.38;;;;;;;12.41;100.00;99666.34;5030701;28;20078;-76
2023/06/24 03:10:59;;;;;;;9.07;5.00;;;;;;;12.34;100.00;99659.19;5031391;28;20411;-76
2023/06/24 03:13:25;;;;;;;8.55;5.07;;;;;;;12.32;100.00;99661.28;5038192;28;20063;-76
2023/06/24 03:15:50;;;;;;;10.20;5.15;;;;;;;12.55;100.00;99666.47;5014634;28;20465;-75
2023/06/24 03:18:16;;;;;;;10.55;4.85;;;;;;;12.42;100.00;99656.34;5028519;28;20465;-75
2023/06/24 03:20:42;;;;;;;7.28;4.55;;;;;;;12.45;100.00;99655.97;5024699;28;20065;-76
2023/06/24 03:23:08;;;;;;;6.63;4.25;;;;;;;12.43;100.00;99669.72;5028634;28;20063;-76
2023/06/24 03:25:34;;;;;;;7.65;4.80;;;;;;;12.35;100.00;99661.72;5019662;28;20046;-75
2023/06/24 03:28:03;;;;;;;7.72;4.82;;;;;;;12.38;100.00;99672.16;5034153;28;20133;-76
2023/06/24 03:30:29;;;;;;;9.70;5.20;;;;;;;12.39;100.00;99671.16;5028076;28;20522;-76
2023/06/24 03:32:54;;;;;;;8.93;4.70;;;;;;;12.50;100.00;99684.19;5024266;28;20029;-75
2023/06/24 03:35:20;;;;;;;8.63;5.28;;;;;;;12.51;100.00;99679.59;5030230;28;20032;-75
2023/06/24 03:37:45;;;;;;;7.85;4.50;;;;;;;12.63;100.00;99694.34;5010977;28;20475;-75
2023/06/24 03:40:11;;;;;;;11.70;4.88;;;;;;;12.58;100.00;99685.94;5033992;28;20029;-76
2023/06/24 03:42:37;;;;;;;6.75;4.70;;;;;;;12.63;100.00;99688.09;5030144;28;20018;-75
2023/06/24 03:45:03;;;;;;;7.78;5.13;;;;;;;12.68;100.00;99694.59;5012925;28;20021;-76
2023/06/24 03:47:29;;;;;;;5.95;4.25;;;;;;;12.68;100.00;99691.88;5007882;28;20028;-75
2023/06/24 03:49:54;;;;;;;7.75;4.78;;;;;;;12.67;100.00;99682.03;5030994;28;20029;-75
2023/06/24 03:52:19;;;;;;;7.07;4.50;;;;;;;12.76;100.00;99690.91;5012161;28;20368;-76
2023/06/24 03:54:46;;;;;;;7.40;4.60;;;;;;;12.94;100.00;99699.41;5029097;28;20024;-76
2023/06/24 03:57:12;;;;;;;9.15;4.60;;;;;;;12.94;100.00;99694.00;5029482;28;20040;-75
2023/06/24 03:59:37;;;;;;;11.23;4.57;;;;;;;13.05;100.00;99703.47;5037307;28;20076;-75
2023/06/24 04:02:03;;;;;;;8.60;4.53;;;;;;;13.06;100.00;99698.88;5015630;28;20490;-75
2023/06/24 04:04:28;;;;;;;9.68;4.63;;;;;;;13.19;100.00;99695.41;5029964;28;20014;-75
2023/06/24 04:06:53;;;;;;;11.00;4.68;;;;;;;13.16;100.00;99680.34;5012775;28;20553;-75
2023/06/24 04:09:18;;;;;;;7.47;4.07;;;;;;;13.29;100.00;99674.19;5032435;28;20013;-75
2023/06/24 04:11:44;;;;;;;9.45;4.85;;;;;;;13.45;100.00;99690.19;5004523;28;20045;-68
2023/06/24 04:14:09;;;;;;;8.85;4.10;;;;;;;13.63;100.00;99707.84;5032217;28;20028;-68
2023/06/24 04:16:35;;;;;;;6.82;4.20;;;;;;;13.65;100.00;99701.16;5026495;28;20390;-70
2023/06/24 04:19:01;;;;;;;6.53;4.20;;;;;;;13.82;100.00;99704.38;5029590;28;20419;-70
2023/06/24 04:21:26;;;;;;;6.90;4.43;;;;;;;13.91;100.00;99699.59;5031002;28;20029;-70
2023/06/24 04:23:52;;;;;;;7.45;4.05;;;;;;;14.15;100.00;99706.41;5042114;28;20017;-70
2023/06/24 04:26:17;;;;;;;10.55;3.78;;;;;;;14.20;100.00;99702.03;5033941;28;20029;-70
2023/06/24 04:28:42;;;;;;;9.27;3.95;;;;;;;14.19;100.00;99691.31;5034210;28;20025;-71
2023/06/24 04:31:07;;;;;;;6.70;3.88;;;;;;;14.11;100.00;99669.75;5026874;28;20474;-70
2023/06/24 04:33:33;;;;;;;9.70;4.50;;;;;;;14.34;100.00;99710.22;5038309;28;20025;-69
2023/06/24 04:35:59;;;;;;;5.88;4.18;;;;;;;14.24;100.00;99692.38;5049749;28;20023;-67
2023/06/24 04:38:24;;;;;;;8.52;4.10;;;;;;;14.34;100.00;99688.44;5041560;28;20413;-71
2023/06/24 04:40:50;;;;;;;7.80;4.75;;;;;;;14.37;100.00;99697.03;5032261;28;20030;-71
2023/06/24 04:43:15;;;;;;;11.75;4.47;;;;;;;14.52;100.00;99702.31;5039514;28;20022;-72
2023/06/24 04:45:40;;;;;;;8.55;4.13;;;;;;;14.53;100.00;99687.66;5031450;28;20036;-71
2023/06/24 04:48:06;;;;;;;6.63;3.75;;;;;;;14.67;100.00;99688.50;5023715;28;20035;-72
2023/06/24 04:50:31;;;;;;;7.88;3.97;;;;;;;14.84;100.00;99711.56;5031624;28;20071;-71
2023/06/24 04:52:56;;;;;;;6.78;4.35;;;;;;;14.70;100.00;99699.00;5040688;28;20117;-71
2023/06/24 04:55:22;;;;;;;6.18;3.95;;;;;;;14.91;100.00;99706.16;5012601;28;20112;-69
2023/06/24 04:57:48;;;;;;;8.80;4.65;;;;;;;14.95;100.00;99710.09;5041617;28;20487;-73
2023/06/24 05:00:13;;;;;;;8.45;4.22;;;;;;;15.02;100.00;99708.22;5019702;28;20523;-70
2023/06/24 05:02:39;;;;;;;9.68;4.57;;;;;;;15.07;100.00;99708.44;5033613;28;20060;-70
2023/06/24 05:05:04;;;;;;;6.60;4.20;;;;;;;15.11;100.00;99714.28;5038750;28;20033;-69
2023/06/24 05:07:29;;;;;;;9.93;4.45;;;;;;;15.16;100.00;99713.66;5026376;28;20505;-69
2023/06/24 05:09:55;;;;;;;7.03;4.05;;;;;;;15.25;100.00;99699.63;5031131;28;20383;-69
2023/06/24 05:12:20;;;;;;;11.20;4.75;;;;;;;15.42;100.00;99691.81;5013980;28;20028;-69
2023/06/24 05:14:50;;;;;;;12.25;4.32;;;;;;;15.62;100.00;99707.31;5040626;28;20049;-69
2023/06/24 05:17:16;;;;;;;9.95;3.92;;;;;;;15.87;100.00;99711.00;5015682;28;20024;-70
2023/06/24 05:19:41;;;;;;;8.02;4.15;;;;;;;16.13;100.00;99706.50;5032468;28;20109;-71
2023/06/24 05:22:06;;;;;;;9.02;3.83;;;;;;;16.40;100.00;99694.41;5033221;28;20025;-66
2023/06/24 05:24:31;;;;;;;9.45;4.10;;;;;;;16.56;100.00;99708.59;5031171;28;20490;-66
2023/06/24 05:27:04;;;;;;;8.15;4.30;;;;;;;16.70;100.00;99692.94;5034166;28;20052;-70
2023/06/24 05:29:30;;;;;;;9.25;4.05;;;;;;;16.86;100.00;99701.44;5044124;28;20097;-66
2023/06/24 05:31:55;;;;;;;6.20;3.88;;;;;;;17.06;100.00;99692.25;5034284;28;20483;-67
2023/06/24 05:34:20;;;;;;;7.53;3.95;;;;;;;17.14;100.00;99686.50;5032600;28;20021;-72
2023/06/24 05:36:45;;;;;;;5.72;3.72;;;;;;;17.33;100.00;99678.31;5036277;28;20068;-72
2023/06/24 05:39:11;;;;;;;6.45;4.05;;;;;;;17.50;100.00;99690.34;5028197;28;20025;-72
2023/06/24 05:41:36;;;;;;;8.75;4.05;;;;;;;17.84;100.00;99699.03;5032096;28;20021;-71
2023/06/24 05:44:07;;;;;;;5.88;3.42;;;;;;;17.90;100.00;99696.25;5030919;28;20022;-72
2023/06/24 05:46:33;;;;;;;7.05;3.60;;;;;;;18.21;100.00;99697.13;5028089;28;20845;-73
2023/06/24 05:48:59;;;;;;;11.25;3.53;;;;;;;18.43;100.00;99697.44;5010867;28;20032;-71
2023/06/24 05:51:24;;;;;;;6.18;4.00;;;;;;;18.34;100.00;99680.50;5029299;28;20124;-70
2023/06/24 05:53:49;;;;;;;6.13;3.47;;;;;;;18.39;100.00;99672.41;5030183;28;20108;-72
2023/06/24 05:56:14;;;;;;;7.03;3.47;;;;;;;18.62;100.00;99687.22;5032204;28;20040;-72
2023/06/24 05:58:40;;;;;;;8.25;3.92;;;;;;;18.74;100.00;99692.75;5035310;28;20031;-67
2023/06/24 06:01:06;;;;;;;5.32;3.47;;;;;;;19.03;100.00;99680.06;5025915;28;20368;-68
2023/06/24 06:03:32;;;;;;;5.68;3.00;;;;;;;19.33;100.00;99690.09;5036295;28;20032;-68
2023/06/24 06:05:57;;;;;;;5.57;3.25;;;;;;;19.32;100.00;99672.81;5035882;28;20091;-68
2023/06/24 06:08:22;;;;;;;6.18;3.25;;;;;;;19.59;100.00;99694.25;5031074;28;20475;-68
2023/06/24 06:10:48;;;;;;;7.10;3.28;;;;;;;19.70;100.00;99691.53;5014747;28;20021;-67
2023/06/24 06:13:13;;;;;;;6.78;3.63;;;;;;;19.67;100.00;99688.44;5014232;28;20032;-68
2023/06/24 06:15:38;;;;;;;5.50;3.20;;;;;;;19.62;100.00;99704.75;5032093;28;20013;-67
2023/06/24 06:18:03;;;;;;;7.13;3.38;;;;;;;19.65;100.00;99698.81;5047015;28;20057;-68
2023/06/24 06:20:29;;;;;;;7.10;3.42;;;;;;;19.93;100.00;99693.38;5029909;28;20026;-68
2023/06/24 06:22:54;;;;;;;6.25;3.33;;;;;;;19.99;100.00;99682.50;5031245;28;20040;-68
2023/06/24 06:25:19;;;;;;;6.00;3.33;;;;;;;20.11;100.00;99672.31;5022514;28;20014;-69
2023/06/24 06:27:45;;;;;;;5.60;3.20;;;;;;;20.41;100.00;99679.47;5028332;28;20106;-68
2023/06/24 06:30:11;;;;;;;5.95;3.22;;;;;;;20.69;100.00;99676.72;5032396;28;20033;-69
2023/06/24 06:32:36;;;;;;;9.40;3.35;;;;;;;20.66;100.00;99666.22;5035585;28;20025;-72
2023/06/24 06:35:01;;;;;;;4.75;3.20;;;;;;;20.81;100.00;99664.84;5042009;28;20022;-72
2023/06/24 06:37:27;;;;;;;6.55;3.38;;;;;;;20.86;100.00;99681.41;5005234;28;20057;-72
2023/06/24 06:39:52;;;;;;;7.32;3.58;;;;;;;21.11;100.00;99678.22;5010643;28;20474;-72
2023/06/24 06:42:17;;;;;;;7.95;3.22;;;;;;;20.93;100.00;99668.31;5022435;28;20386;-72
2023/06/24 06:44:43;;;;;;;7.20;3.63;;;;;;;21.15;100.00;99679.41;5032382;28;20029;-72
2023/06/24 06:47:08;;;;;;;6.05;3.67;;;;;;;21.28;100.00;99667.22;5031634;28;20040;-71
2023/06/24 06:49:33;;;;;;;6.50;3.20;;;;;;;21.76;100.00;99669.28;5036974;28;20013;-72
2023/06/24 06:51:58;;;;;;;6.70;3.17;;;;;;;22.08;100.00;99649.28;5038732;28;20025;-72
2023/06/24 06:54:24;;;;;;;4.78;3.00;;;;;;;22.90;100.00;99664.75;5044557;28;20435;-72
2023/06/24 06:56:50;;;;;;;6.35;3.35;;;;;;;24.87;100.00;99660.69;5044555;28;20128;-72
2023/06/24 06:59:16;;;;;;;3.92;2.67;;;;;;;27.01;79.60;99669.25;5029660;28;20100;-70
2023/06/24 07:01:41;;;;;;;5.18;3.20;;;;;;;28.91;64.68;99659.44;5023446;28;20052;-69
2023/06/24 07:04:06;;;;;;;5.72;3.67;;;;;;;29.71;59.08;99661.09;5018252;28;20403;-70
2023/06/24 07:06:32;;;;;;;5.07;3.42;;;;;;;30.73;54.53;99670.06;5036535;28;20467;-70
2023/06/24 07:08:58;;;;;;;5.07;3.40;;;;;;;31.06;52.25;99647.44;5029178;28;20472;-73
2023/06/24 07:11:23;;;;;;;6.28;3.33;;;;;;;31.10;51.17;99636.44;5004288;28;20083;-75
2023/06/24 07:13:51;;;;;;;5.63;3.22;;;;;;;30.76;51.87;99652.66;5011684;28;20033;-71
2023/06/24 07:16:17;;;;;;;5.07;3.28;;;;;;;32.94;47.33;99667.44;5034167;28;20029;-71
2023/06/24 07:18:42;;;;;;;7.13;3.72;;;;;;;31.79;48.34;99652.78;5039630;28;20083;-74
2023/06/24 07:21:07;;;;;;;5.13;3.67;;;;;;;33.21;46.23;99652.25;5030664;28;20021;-74
2023/06/24 07:23:32;;;;;;;5.85;3.30;;;;;;;32.93;46.39;99655.41;5030920;28;20029;-76
2023/06/24 07:25:58;;;;;;;5.10;2.92;;;;;;;33.44;45.79;99640.81;5020987;28;20054;-76
2023/06/24 07:28:23;;;;;;;6.13;3.45;;;;;;;33.98;43.97;99655.94;5026311;28;20032;-76
2023/06/24 07:30:48;;;;;;;6.70;3.72;;;;;;;33.54;44.08;99651.69;5014974;28;20036;-77
2023/06/24 07:33:14;;;;;;;5.53;3.50;;;;;;;34.58;42.45;99628.59;5022439;28;21131;-77
2023/06/24 07:35:39;;;;;;;10.23;5.15;;;;;;;35.24;41.73;99635.41;5038595;28;20175;-77
2023/06/24 07:38:04;;;;;;;6.43;3.10;;;;;;;34.37;41.58;99644.63;5018135;28;20025;-75
2023/06/24 07:40:29;;;;;;;4.18;3.03;;;;;;;35.27;40.14;99626.28;5028360;28;20026;-78
2023/06/24 07:42:55;;;;;;;5.20;3.28;;;;;;;34.59;40.49;99623.81;5031462;28;20037;-77
2023/06/24 07:45:20;;;;;;;4.25;3.25;;;;;;;34.95;39.82;99644.78;5030951;28;20024;-77
2023/06/24 07:47:45;;;;;;;5.78;3.47;;;;;;;35.99;38.86;99641.59;5040380;28;20029;-75
2023/06/24 07:50:11;;;;;;;6.05;3.67;;;;;;;36.23;38.46;99639.94;5033232;28;20026;-76
2023/06/24 07:52:37;;;;;;;6.13;4.07;;;;;;;37.35;37.47;99649.66;5042603;28;20079;-75
2023/06/24 07:55:03;;;;;;;12.57;5.07;;;;;;;37.16;37.82;99625.78;5042361;28;20051;-76
2023/06/24 07:57:29;;;;;;;6.53;4.85;;;;;;;38.96;34.34;99630.81;5035723;28;20479;-76
2023/06/24 07:59:54;;;;;;;6.97;3.40;;;;;;;37.00;35.30;99630.53;5034771;28;20025;-77
2023/06/24 08:02:20;;;;;;;4.70;3.00;;;;;;;37.83;34.99;99627.88;5031652;28;20017;-76
2023/06/24 08:04:45;;;;;;;4.82;3.70;;;;;;;39.51;33.17;99627.81;5031583;28;20029;-74
2023/06/24 08:07:10;;;;;;;5.15;3.70;;;;;;;38.62;33.42;99605.09;5034330;28;20033;-75
2023/06/24 08:09:36;;;;;;;4.80;3.20;;;;;;;39.26;33.59;99628.16;5027940;28;20107;-78
2023/06/24 08:12:01;;;;;;;7.05;4.53;;;;;;;40.37;31.94;99612.16;5019089;28;20030;-79
2023/06/24 08:14:26;;;;;;;5.68;2.92;;;;;;;40.26;32.68;99615.66;5046009;28;20021;-72
2023/06/24 08:16:52;;;;;;;7.18;4.25;;;;;;;40.65;31.52;99623.91;5045675;28;20072;-73
2023/06/24 08:19:17;;;;;;;5.55;2.88;;;;;;;39.75;30.64;99623.75;5054607;28;20108;-76
2023/06/24 08:21:42;;;;;;;5.07;2.80;;;;;;;39.90;31.51;99608.63;5022122;28;20059;-77
2023/06/24 08:24:08;;;;;;;3.17;2.33;;;;;;;38.88;32.28;99624.19;5017706;28;20280;-80
2023/06/24 08:26:33;;;;;;;3.88;2.60;;;;;;;39.78;30.04;99620.22;5034996;28;20033;-76
2023/06/24 08:28:59;;;;;;;3.65;2.80;;;;;;;38.30;33.17;99615.66;5037995;28;20512;-76
2023/06/24 08:31:25;;;;;;;3.53;2.65;;;;;;;40.22;31.11;99605.47;5028439;28;20025;-77
2023/06/24 08:33:54;;;;;;;5.55;2.90;;;;;;;39.79;30.33;99605.63;5036811;28;20037;-79
2023/06/24 08:36:21;;;;;;;4.75;2.78;;;;;;;41.52;29.69;99609.44;5016254;28;20030;-72
2023/06/24 08:38:46;;;;;;;4.70;2.90;;;;;;;40.67;31.16;99613.00;5028814;28;20373;-74
2023/06/24 08:41:12;;;;;;;3.63;3.10;;;;;;;38.90;33.33;99619.00;5020494;28;20059;-73
2023/06/24 08:43:38;;;;;;;5.63;3.10;;;;;;;39.97;31.62;99611.59;5015805;28;20021;-73
2023/06/24 08:46:04;;;;;;;5.60;3.00;;;;;;;40.04;31.24;99610.88;5029507;28;20296;-73
2023/06/24 08:48:30;;;;;;;5.20;2.85;;;;;;;41.18;30.31;99612.34;5037034;28;20029;-73
2023/06/24 08:50:58;;;;;;;4.15;2.70;;;;;;;40.81;30.31;99628.53;5039435;28;20083;-74
2023/06/24 08:53:25;;;;;;;;;;;;;;;40.23;29.95;99616.44;5037256;28;20036;-73
2023/06/24 08:55:53;;;;;;;3.55;3.10;;;;;;;40.44;30.41;99618.75;5029932;28;19936;-73
2023/06/24 08:58:19;;;;;;;3.00;2.47;;;;;;;40.93;30.66;99611.25;5023189;28;20025;-73
2023/06/24 09:00:44;;;;;;;2.92;2.50;;;;;;;41.18;29.85;99617.22;5026171;28;20034;-73
2023/06/24 09:03:10;;;;;;;3.35;2.15;;;;;;;42.90;28.50;99618.41;5024424;28;20021;-73
2023/06/24 09:05:35;;;;;;;3.47;2.20;;;;;;;41.79;28.20;99610.06;5032710;28;20029;-74
2023/06/24 09:08:00;;;;;;;4.82;2.60;;;;;;;36.41;32.89;99620.75;5016540;28;20307;-73
2023/06/24 09:10:37;;;;;;;4.13;3.00;;;;;;;33.58;37.52;99602.13;5032091;28;20590;-74
2023/06/24 09:13:04;;;;;;;3.83;2.78;;;;;;;36.92;33.50;99608.94;5039219;28;20025;-74
2023/06/24 09:15:31;;;;;;;4.65;2.97;;;;;;;38.32;32.16;99610.47;5021730;28;20030;-74
2023/06/24 09:17:56;;;;;;;3.17;2.38;;;;;;;40.13;30.64;99585.91;5031643;28;20065;-74
2023/06/24 09:20:22;;;;;;;5.65;2.20;;;;;;;41.72;29.29;99595.78;5006347;28;20076;-74
2023/06/24 09:22:48;;;;;;;5.38;2.60;;;;;;;41.87;28.97;99578.81;5028323;28;20025;-74
2023/06/24 09:25:18;;;;;;;3.75;2.10;;;;;;;43.93;26.94;99594.06;5026488;28;20075;-74
2023/06/24 09:27:48;;;;;;;2.90;2.00;;;;;;;44.30;25.54;99595.59;5038276;28;20036;-74
2023/06/24 09:30:19;;;;;;;2.35;1.73;;;;;;;44.90;25.87;99600.25;5022570;28;20112;-74
2023/06/24 09:32:45;;;;;;;2.83;2.05;;;;;;;44.88;26.58;99576.22;5026073;28;20060;-75
2023/06/24 09:35:10;;;;;;;3.50;1.92;;;;;;;43.29;26.97;99567.22;5027843;28;20030;-75
2023/06/24 09:37:35;;;;;;;2.78;1.75;;;;;;;44.12;26.75;99567.94;5035500;28;20021;-75
2023/06/24 09:40:04;;;;;;;2.83;2.00;;;;;;;43.65;27.18;99566.41;5034698;28;20032;-74
2023/06/24 09:42:30;;;;;;;3.15;1.80;;;;;;;43.82;27.36;99570.47;5032688;28;20053;-74
2023/06/24 09:44:55;;;;;;;2.20;2.00;;;;;;;43.50;26.46;99565.59;5020952;28;20472;-74
2023/06/24 09:47:24;;;;;;;1.80;1.60;;;;;;;44.40;26.34;99566.25;5045908;28;20749;-74
2023/06/24 09:49:50;;;;;;;2.20;1.73;;;;;;;44.65;25.81;99553.88;5044919;28;20086;-74
2023/06/24 09:52:16;;;;;;;2.42;1.67;;;;;;;44.18;25.27;99545.53;5026813;28;20459;-74
2023/06/24 09:54:45;;;;;;;4.10;1.90;;;;;;;44.08;25.90;99552.91;5024062;28;20033;-74
2023/06/24 09:57:12;;;;;;;3.38;2.05;;;;;;;44.68;25.24;99550.22;5030488;28;20029;-75
2023/06/24 09:59:37;;;;;;;3.13;1.80;;;;;;;42.70;25.99;99541.06;5036123;28;20034;-74
2023/06/24 10:02:04;;;;;;;3.70;1.80;;;;;;;42.75;26.56;99560.59;5031782;28;20302;-74
2023/06/24 10:04:31;;;;;;;3.55;2.13;;;;;;;43.13;26.15;99546.84;5039387;28;22146;-73
2023/06/24 10:06:57;;;;;;;2.88;2.00;;;;;;;41.99;26.70;99548.06;5028487;28;20053;-74
2023/06/24 10:09:23;;;;;;;5.32;2.05;;;;;;;42.13;26.52;99537.97;5025712;28;20022;-74
2023/06/24 10:11:48;;;;;;;3.30;1.98;;;;;;;43.02;26.69;99531.78;5028640;28;20558;-74
2023/06/24 10:14:15;;;;;;;2.83;1.98;;;;;;;43.13;26.72;99544.00;5041071;28;20033;-74
2023/06/24 10:16:41;;;;;;;2.28;1.85;;;;;;;43.44;26.99;99544.41;5026466;28;20029;-72
2023/06/24 10:19:06;;;;;;;2.60;1.98;;;;;;;42.55;25.97;99499.56;5012217;28;20018;-74
2023/06/24 10:21:51;;;;;;;2.83;2.17;;;;;;;42.41;26.01;99538.13;5019471;28;20032;-74
2023/06/24 10:24:37;;;;;;;2.53;2.03;;;;;;;39.52;27.80;99539.66;5036666;28;20025;-74
2023/06/24 10:27:16;;;;;;;2.78;1.88;;;;;;;39.06;29.09;99527.53;5032043;28;20055;-73
2023/06/24 10:29:49;;;;;;;3.05;2.45;;;;;;;38.70;28.93;99526.84;5035823;28;20037;-74
2023/06/24 10:32:15;;;;;;;3.33;1.90;;;;;;;40.95;29.45;99524.50;5029220;28;20032;-74
2023/06/24 10:34:42;;;;;;;2.47;1.70;;;;;;;43.78;27.14;99516.28;5015835;28;20055;-75
2023/06/24 10:37:07;;;;;;;3.92;1.80;;;;;;;44.96;26.51;99520.66;5029051;28;20025;-74
2023/06/24 10:39:48;;;;;;;2.73;1.80;;;;;;;46.56;24.51;99518.19;5013391;28;20032;-76
2023/06/24 10:42:38;;;;;;;4.03;1.90;;;;;;;45.60;24.94;99511.56;5013385;28;20058;-76
2023/06/24 10:45:09;;;;;;;2.38;2.00;;;;;;;45.60;25.24;99507.91;5029865;28;20555;-75
2023/06/24 10:47:46;;;;;;;1.50;1.40;;;;;;;46.06;24.57;99503.72;5040763;28;20541;-75
2023/06/24 10:50:14;;;;;;;5.38;1.85;;;;;;;45.23;24.71;99503.75;5041841;28;20025;-76
2023/06/24 10:52:44;;;;;;;2.45;1.85;;;;;;;44.11;25.46;99497.88;5035988;28;20033;-76
2023/06/24 10:55:12;;;;;;;2.38;1.60;;;;;;;44.51;24.60;99498.50;5045445;28;20024;-75
2023/06/24 10:57:38;;;;;;;3.10;1.80;;;;;;;45.06;24.85;99474.88;5053527;28;20520;-76
2023/06/24 11:00:04;;;;;;;2.20;1.67;;;;;;;44.64;24.11;99484.56;5019354;28;20029;-73
2023/06/24 11:02:29;;;;;;;2.95;1.98;;;;;;;43.87;25.02;99479.63;5036068;28;20657;-75
2023/06/24 11:04:57;;;;;;;2.70;1.77;;;;;;;42.34;26.55;99472.72;5035367;28;20025;-72
2023/06/24 11:07:30;;;;;;;2.40;1.80;;;;;;;42.87;26.14;99474.84;5038450;28;20287;-73
2023/06/24 11:10:05;;;;;;;2.97;1.77;;;;;;;43.57;24.58;99468.72;5055549;28;20522;-74
2023/06/24 11:12:32;;;;;;;3.17;1.67;;;;;;;41.00;25.56;99479.94;5034271;28;20037;-76
2023/06/24 11:15:03;;;;;;;2.67;1.92;;;;;;;41.46;27.11;99462.47;5015009;28;20502;-75
2023/06/24 11:17:29;;;;;;;3.85;2.10;;;;;;;43.29;24.86;99458.97;5029975;28;20034;-76
2023/06/24 11:19:56;;;;;;;3.00;2.03;;;;;;;42.58;25.31;99458.94;5036472;28;20021;-76
2023/06/24 11:22:23;;;;;;;3.27;1.70;;;;;;;40.65;25.96;99459.34;5033861;28;20094;-75
2023/06/24 11:24:48;;;;;;;2.35;1.60;;;;;;;36.69;29.83;99434.72;5044526;28;21137;-73
2023/06/24 11:27:14;;;;;;;10.20;2.17;;;;;;;35.98;30.72;99458.88;5040949;28;20053;-75
2023/06/24 11:29:39;;;;;;;3.38;1.90;;;;;;;38.28;29.08;99443.63;5027640;28;20130;-75